sensor_id;sensor_type;location;lat;lon;timestamp;P1;durP1;ratioP1;P2;durP2;ratioP2
18917;SDS011;9591;52.742;13.650;2024-01-30T00:01:36;8.97;;;5.77;;
18917;SDS011;9591;52.742;13.650;2024-01-30T00:04:23;11.47;;;6.50;;
18917;SDS011;9591;52.742;13.650;2024-01-30T00:07:10;10.93;;;6.30;;
18917;SDS011;9591;52.742;13.650;2024-01-30T00:09:57;11.70;;;6.43;;
18917;SDS011;9591;52.742;13.650;2024-01-30T00:12:46;13.10;;;6.47;;
18917;SDS011;9591;52.742;13.650;2024-01-30T00:15:33;11.83;;;6.27;;
18917;SDS011;9591;52.742;13.650;2024-01-30T00:18:20;12.57;;;6.17;;
18917;SDS011;9591;52.742;13.650;2024-01-30T00:21:07;13.63;;;6.10;;
18917;SDS011;9591;52.742;13.650;2024-01-30T00:23:54;17.17;;;6.13;;
18917;SDS011;9591;52.742;13.650;2024-01-30T00:26:41;10.43;;;6.40;;
18917;SDS011;9591;52.742;13.650;2024-01-30T00:29:29;13.27;;;6.70;;
18917;SDS011;9591;52.742;13.650;2024-01-30T00:32:18;10.57;;;5.73;;
18917;SDS011;9591;52.742;13.650;2024-01-30T00:35:05;9.07;;;5.83;;
18917;SDS011;9591;52.742;13.650;2024-01-30T00:37:55;12.27;;;6.20;;
18917;SDS011;9591;52.742;13.650;2024-01-30T00:40:42;10.10;;;6.50;;
18917;SDS011;9591;52.742;13.650;2024-01-30T00:43:29;9.67;;;6.20;;
18917;SDS011;9591;52.742;13.650;2024-01-30T00:46:17;9.77;;;5.70;;
18917;SDS011;9591;52.742;13.650;2024-01-30T00:49:04;12.50;;;6.23;;
18917;SDS011;9591;52.742;13.650;2024-01-30T00:51:51;12.10;;;5.57;;
18917;SDS011;9591;52.742;13.650;2024-01-30T00:54:38;11.40;;;5.93;;
18917;SDS011;9591;52.742;13.650;2024-01-30T00:57:25;9.90;;;5.83;;
18917;SDS011;9591;52.742;13.650;2024-01-30T01:00:12;10.93;;;6.10;;
18917;SDS011;9591;52.742;13.650;2024-01-30T01:03:03;10.43;;;6.20;;
18917;SDS011;9591;52.742;13.650;2024-01-30T01:05:50;11.13;;;6.30;;
18917;SDS011;9591;52.742;13.650;2024-01-30T01:08:37;12.77;;;6.47;;
18917;SDS011;9591;52.742;13.650;2024-01-30T01:11:24;11.50;;;6.40;;
18917;SDS011;9591;52.742;13.650;2024-01-30T01:14:11;11.67;;;5.97;;
18917;SDS011;9591;52.742;13.650;2024-01-30T01:16:58;12.90;;;6.23;;
18917;SDS011;9591;52.742;13.650;2024-01-30T01:19:46;14.33;;;7.63;;
18917;SDS011;9591;52.742;13.650;2024-01-30T01:22:33;13.47;;;6.50;;
18917;SDS011;9591;52.742;13.650;2024-01-30T01:25:20;9.03;;;5.63;;
18917;SDS011;9591;52.742;13.650;2024-01-30T01:28:07;11.90;;;6.40;;
18917;SDS011;9591;52.742;13.650;2024-01-30T01:30:54;13.87;;;5.90;;
18917;SDS011;9591;52.742;13.650;2024-01-30T01:33:44;11.63;;;5.97;;
18917;SDS011;9591;52.742;13.650;2024-01-30T01:36:33;10.70;;;5.63;;
18917;SDS011;9591;52.742;13.650;2024-01-30T01:39:20;10.00;;;5.13;;
18917;SDS011;9591;52.742;13.650;2024-01-30T01:42:09;10.07;;;5.97;;
18917;SDS011;9591;52.742;13.650;2024-01-30T01:44:56;11.13;;;5.37;;
18917;SDS011;9591;52.742;13.650;2024-01-30T01:47:43;13.77;;;5.67;;
18917;SDS011;9591;52.742;13.650;2024-01-30T01:50:32;10.83;;;5.60;;
18917;SDS011;9591;52.742;13.650;2024-01-30T01:53:20;15.40;;;6.73;;
18917;SDS011;9591;52.742;13.650;2024-01-30T01:56:08;9.53;;;5.17;;
18917;SDS011;9591;52.742;13.650;2024-01-30T01:58:55;14.53;;;6.10;;
18917;SDS011;9591;52.742;13.650;2024-01-30T02:01:46;11.27;;;5.03;;
18917;SDS011;9591;52.742;13.650;2024-01-30T02:04:34;11.83;;;5.63;;
18917;SDS011;9591;52.742;13.650;2024-01-30T02:07:21;9.70;;;5.03;;
18917;SDS011;9591;52.742;13.650;2024-01-30T02:10:10;11.97;;;5.83;;
18917;SDS011;9591;52.742;13.650;2024-01-30T02:12:57;13.90;;;6.17;;
18917;SDS011;9591;52.742;13.650;2024-01-30T02:15:48;15.10;;;5.50;;
18917;SDS011;9591;52.742;13.650;2024-01-30T02:18:35;9.47;;;5.87;;
18917;SDS011;9591;52.742;13.650;2024-01-30T02:21:29;10.30;;;6.10;;
18917;SDS011;9591;52.742;13.650;2024-01-30T02:24:15;10.53;;;5.37;;
18917;SDS011;9591;52.742;13.650;2024-01-30T02:27:03;12.23;;;5.97;;
18917;SDS011;9591;52.742;13.650;2024-01-30T02:29:49;13.93;;;5.87;;
18917;SDS011;9591;52.742;13.650;2024-01-30T02:32:36;9.40;;;5.57;;
18917;SDS011;9591;52.742;13.650;2024-01-30T02:35:23;9.63;;;5.70;;
18917;SDS011;9591;52.742;13.650;2024-01-30T02:38:12;12.50;;;6.00;;
18917;SDS011;9591;52.742;13.650;2024-01-30T02:40:58;14.37;;;5.63;;
18917;SDS011;9591;52.742;13.650;2024-01-30T02:43:45;13.67;;;6.13;;
18917;SDS011;9591;52.742;13.650;2024-01-30T02:46:32;11.97;;;6.23;;
18917;SDS011;9591;52.742;13.650;2024-01-30T02:49:19;9.33;;;6.13;;
18917;SDS011;9591;52.742;13.650;2024-01-30T02:52:06;13.97;;;5.47;;
18917;SDS011;9591;52.742;13.650;2024-01-30T02:54:55;11.07;;;6.30;;
18917;SDS011;9591;52.742;13.650;2024-01-30T02:57:42;13.73;;;5.23;;
18917;SDS011;9591;52.742;13.650;2024-01-30T03:00:29;20.10;;;6.30;;
18917;SDS011;9591;52.742;13.650;2024-01-30T03:03:16;11.30;;;5.77;;
18917;SDS011;9591;52.742;13.650;2024-01-30T03:06:03;11.70;;;6.20;;
18917;SDS011;9591;52.742;13.650;2024-01-30T03:08:51;12.43;;;5.80;;
18917;SDS011;9591;52.742;13.650;2024-01-30T03:11:40;10.67;;;5.87;;
18917;SDS011;9591;52.742;13.650;2024-01-30T03:14:27;11.53;;;5.47;;
18917;SDS011;9591;52.742;13.650;2024-01-30T03:17:13;11.43;;;6.00;;
18917;SDS011;9591;52.742;13.650;2024-01-30T03:20:00;13.03;;;6.80;;
18917;SDS011;9591;52.742;13.650;2024-01-30T03:22:49;11.97;;;6.40;;
18917;SDS011;9591;52.742;13.650;2024-01-30T03:25:36;11.43;;;5.80;;
18917;SDS011;9591;52.742;13.650;2024-01-30T03:28:24;10.30;;;5.20;;
18917;SDS011;9591;52.742;13.650;2024-01-30T03:31:13;12.20;;;6.37;;
18917;SDS011;9591;52.742;13.650;2024-01-30T03:34:01;17.63;;;5.97;;
18917;SDS011;9591;52.742;13.650;2024-01-30T03:36:48;12.30;;;6.30;;
18917;SDS011;9591;52.742;13.650;2024-01-30T03:39:37;11.90;;;6.07;;
18917;SDS011;9591;52.742;13.650;2024-01-30T03:42:23;10.50;;;5.50;;
18917;SDS011;9591;52.742;13.650;2024-01-30T03:45:12;12.97;;;7.13;;
18917;SDS011;9591;52.742;13.650;2024-01-30T03:47:59;12.67;;;6.40;;
18917;SDS011;9591;52.742;13.650;2024-01-30T03:50:45;11.97;;;5.83;;
18917;SDS011;9591;52.742;13.650;2024-01-30T03:53:32;12.37;;;6.83;;
18917;SDS011;9591;52.742;13.650;2024-01-30T03:56:19;15.30;;;6.63;;
18917;SDS011;9591;52.742;13.650;2024-01-30T03:59:06;9.57;;;6.07;;
18917;SDS011;9591;52.742;13.650;2024-01-30T04:01:54;11.70;;;6.20;;
18917;SDS011;9591;52.742;13.650;2024-01-30T04:04:42;13.13;;;5.90;;
18917;SDS011;9591;52.742;13.650;2024-01-30T04:07:29;11.87;;;6.63;;
18917;SDS011;9591;52.742;13.650;2024-01-30T04:10:15;14.27;;;6.47;;
18917;SDS011;9591;52.742;13.650;2024-01-30T04:13:03;11.93;;;6.47;;
18917;SDS011;9591;52.742;13.650;2024-01-30T04:15:52;8.80;;;5.60;;
18917;SDS011;9591;52.742;13.650;2024-01-30T04:18:41;12.47;;;6.27;;
18917;SDS011;9591;52.742;13.650;2024-01-30T04:21:28;17.23;;;6.43;;
18917;SDS011;9591;52.742;13.650;2024-01-30T04:24:15;11.13;;;6.30;;
18917;SDS011;9591;52.742;13.650;2024-01-30T04:27:03;14.43;;;7.93;;
18917;SDS011;9591;52.742;13.650;2024-01-30T04:29:50;13.17;;;6.47;;
18917;SDS011;9591;52.742;13.650;2024-01-30T04:32:37;18.43;;;7.17;;
18917;SDS011;9591;52.742;13.650;2024-01-30T04:35:25;15.50;;;6.97;;
18917;SDS011;9591;52.742;13.650;2024-01-30T04:38:12;10.37;;;6.23;;
18917;SDS011;9591;52.742;13.650;2024-01-30T04:40:59;14.07;;;7.10;;
18917;SDS011;9591;52.742;13.650;2024-01-30T04:43:46;13.10;;;6.53;;
18917;SDS011;9591;52.742;13.650;2024-01-30T04:46:33;11.10;;;6.17;;
18917;SDS011;9591;52.742;13.650;2024-01-30T04:49:20;15.43;;;6.57;;
18917;SDS011;9591;52.742;13.650;2024-01-30T04:52:08;12.63;;;7.20;;
18917;SDS011;9591;52.742;13.650;2024-01-30T04:54:55;11.00;;;6.33;;
18917;SDS011;9591;52.742;13.650;2024-01-30T04:57:42;17.17;;;6.93;;
18917;SDS011;9591;52.742;13.650;2024-01-30T05:00:29;15.97;;;6.80;;
18917;SDS011;9591;52.742;13.650;2024-01-30T05:03:16;16.70;;;7.07;;
18917;SDS011;9591;52.742;13.650;2024-01-30T05:06:03;14.00;;;7.90;;
18917;SDS011;9591;52.742;13.650;2024-01-30T05:08:51;20.17;;;7.43;;
18917;SDS011;9591;52.742;13.650;2024-01-30T05:11:38;18.07;;;7.87;;
18917;SDS011;9591;52.742;13.650;2024-01-30T05:14:25;13.00;;;6.73;;
18917;SDS011;9591;52.742;13.650;2024-01-30T05:17:12;14.37;;;6.60;;
18917;SDS011;9591;52.742;13.650;2024-01-30T05:19:58;13.53;;;6.70;;
18917;SDS011;9591;52.742;13.650;2024-01-30T05:22:45;15.07;;;7.07;;
18917;SDS011;9591;52.742;13.650;2024-01-30T05:25:34;13.23;;;7.57;;
18917;SDS011;9591;52.742;13.650;2024-01-30T05:28:20;15.20;;;7.37;;
18917;SDS011;9591;52.742;13.650;2024-01-30T05:31:07;13.23;;;6.40;;
18917;SDS011;9591;52.742;13.650;2024-01-30T05:33:54;13.03;;;7.57;;
18917;SDS011;9591;52.742;13.650;2024-01-30T05:36:41;18.13;;;7.40;;
18917;SDS011;9591;52.742;13.650;2024-01-30T05:39:28;12.07;;;6.83;;
18917;SDS011;9591;52.742;13.650;2024-01-30T05:42:19;11.83;;;6.50;;
18917;SDS011;9591;52.742;13.650;2024-01-30T05:45:06;13.23;;;6.70;;
18917;SDS011;9591;52.742;13.650;2024-01-30T05:47:53;13.47;;;6.97;;
18917;SDS011;9591;52.742;13.650;2024-01-30T05:50:40;16.57;;;7.67;;
18917;SDS011;9591;52.742;13.650;2024-01-30T05:53:27;12.97;;;6.30;;
18917;SDS011;9591;52.742;13.650;2024-01-30T05:56:14;10.77;;;6.10;;
18917;SDS011;9591;52.742;13.650;2024-01-30T05:59:02;14.57;;;6.50;;
18917;SDS011;9591;52.742;13.650;2024-01-30T06:01:49;18.03;;;7.03;;
18917;SDS011;9591;52.742;13.650;2024-01-30T06:04:36;13.27;;;6.77;;
18917;SDS011;9591;52.742;13.650;2024-01-30T06:07:23;16.30;;;7.17;;
18917;SDS011;9591;52.742;13.650;2024-01-30T06:10:10;12.80;;;6.67;;
18917;SDS011;9591;52.742;13.650;2024-01-30T06:12:57;14.00;;;6.93;;
18917;SDS011;9591;52.742;13.650;2024-01-30T06:15:45;20.90;;;7.77;;
18917;SDS011;9591;52.742;13.650;2024-01-30T06:18:32;13.50;;;6.97;;
18917;SDS011;9591;52.742;13.650;2024-01-30T06:21:19;14.60;;;7.33;;
18917;SDS011;9591;52.742;13.650;2024-01-30T06:24:06;12.83;;;7.00;;
18917;SDS011;9591;52.742;13.650;2024-01-30T06:26:53;12.80;;;7.23;;
18917;SDS011;9591;52.742;13.650;2024-01-30T06:29:40;13.57;;;7.30;;
18917;SDS011;9591;52.742;13.650;2024-01-30T06:32:28;14.07;;;7.37;;
18917;SDS011;9591;52.742;13.650;2024-01-30T06:35:19;17.67;;;6.67;;
18917;SDS011;9591;52.742;13.650;2024-01-30T06:38:07;17.50;;;6.70;;
18917;SDS011;9591;52.742;13.650;2024-01-30T06:40:54;14.77;;;7.37;;
18917;SDS011;9591;52.742;13.650;2024-01-30T06:43:41;16.33;;;7.87;;
18917;SDS011;9591;52.742;13.650;2024-01-30T06:46:30;11.13;;;7.13;;
18917;SDS011;9591;52.742;13.650;2024-01-30T06:49:19;13.67;;;7.53;;
18917;SDS011;9591;52.742;13.650;2024-01-30T06:52:07;12.80;;;7.67;;
18917;SDS011;9591;52.742;13.650;2024-01-30T06:54:54;12.67;;;7.73;;
18917;SDS011;9591;52.742;13.650;2024-01-30T06:57:41;15.87;;;7.77;;
18917;SDS011;9591;52.742;13.650;2024-01-30T07:00:28;13.00;;;7.53;;
18917;SDS011;9591;52.742;13.650;2024-01-30T07:03:15;14.83;;;7.63;;
18917;SDS011;9591;52.742;13.650;2024-01-30T07:06:03;12.00;;;6.60;;
18917;SDS011;9591;52.742;13.650;2024-01-30T07:08:50;16.70;;;7.27;;
18917;SDS011;9591;52.742;13.650;2024-01-30T07:11:37;17.00;;;7.97;;
18917;SDS011;9591;52.742;13.650;2024-01-30T07:14:24;17.87;;;7.60;;
18917;SDS011;9591;52.742;13.650;2024-01-30T07:17:11;16.27;;;7.93;;
18917;SDS011;9591;52.742;13.650;2024-01-30T07:19:58;15.70;;;7.30;;
18917;SDS011;9591;52.742;13.650;2024-01-30T07:22:46;14.17;;;7.27;;
18917;SDS011;9591;52.742;13.650;2024-01-30T07:25:33;11.50;;;6.97;;
18917;SDS011;9591;52.742;13.650;2024-01-30T07:28:21;16.93;;;7.53;;
18917;SDS011;9591;52.742;13.650;2024-01-30T07:31:09;15.77;;;8.40;;
18917;SDS011;9591;52.742;13.650;2024-01-30T07:33:56;14.53;;;7.63;;
18917;SDS011;9591;52.742;13.650;2024-01-30T07:36:43;15.40;;;8.37;;
18917;SDS011;9591;52.742;13.650;2024-01-30T07:39:31;17.17;;;7.17;;
18917;SDS011;9591;52.742;13.650;2024-01-30T07:42:18;16.03;;;7.40;;
18917;SDS011;9591;52.742;13.650;2024-01-30T07:45:05;13.63;;;7.57;;
18917;SDS011;9591;52.742;13.650;2024-01-30T07:47:52;17.60;;;8.20;;
18917;SDS011;9591;52.742;13.650;2024-01-30T07:50:39;15.50;;;8.50;;
18917;SDS011;9591;52.742;13.650;2024-01-30T07:53:26;17.70;;;8.23;;
18917;SDS011;9591;52.742;13.650;2024-01-30T07:56:14;18.20;;;7.60;;
18917;SDS011;9591;52.742;13.650;2024-01-30T07:59:01;13.17;;;7.33;;
18917;SDS011;9591;52.742;13.650;2024-01-30T08:01:48;16.20;;;7.27;;
18917;SDS011;9591;52.742;13.650;2024-01-30T08:04:35;15.97;;;7.03;;
18917;SDS011;9591;52.742;13.650;2024-01-30T08:07:22;14.10;;;6.70;;
18917;SDS011;9591;52.742;13.650;2024-01-30T08:10:10;17.67;;;8.10;;
18917;SDS011;9591;52.742;13.650;2024-01-30T08:12:59;15.70;;;7.77;;
18917;SDS011;9591;52.742;13.650;2024-01-30T08:15:46;18.20;;;7.80;;
18917;SDS011;9591;52.742;13.650;2024-01-30T08:18:33;14.73;;;8.03;;
18917;SDS011;9591;52.742;13.650;2024-01-30T08:21:20;13.80;;;7.43;;
18917;SDS011;9591;52.742;13.650;2024-01-30T08:24:07;13.13;;;7.40;;
18917;SDS011;9591;52.742;13.650;2024-01-30T08:26:54;14.30;;;7.30;;
18917;SDS011;9591;52.742;13.650;2024-01-30T08:29:42;16.67;;;7.97;;
18917;SDS011;9591;52.742;13.650;2024-01-30T08:32:29;17.33;;;8.20;;
18917;SDS011;9591;52.742;13.650;2024-01-30T08:35:16;17.27;;;8.13;;
18917;SDS011;9591;52.742;13.650;2024-01-30T08:38:03;10.13;;;6.77;;
18917;SDS011;9591;52.742;13.650;2024-01-30T08:40:50;22.77;;;9.10;;
18917;SDS011;9591;52.742;13.650;2024-01-30T08:43:37;20.07;;;9.80;;
18917;SDS011;9591;52.742;13.650;2024-01-30T08:46:25;70.97;;;27.73;;
18917;SDS011;9591;52.742;13.650;2024-01-30T08:49:12;54.33;;;21.27;;
18917;SDS011;9591;52.742;13.650;2024-01-30T08:52:00;32.70;;;14.07;;
18917;SDS011;9591;52.742;13.650;2024-01-30T08:54:47;25.50;;;10.80;;
18917;SDS011;9591;52.742;13.650;2024-01-30T08:57:34;21.07;;;10.50;;
18917;SDS011;9591;52.742;13.650;2024-01-30T09:00:20;22.30;;;9.97;;
18917;SDS011;9591;52.742;13.650;2024-01-30T09:03:09;22.63;;;9.90;;
18917;SDS011;9591;52.742;13.650;2024-01-30T09:05:56;20.40;;;9.87;;
18917;SDS011;9591;52.742;13.650;2024-01-30T09:08:43;11.73;;;7.60;;
18917;SDS011;9591;52.742;13.650;2024-01-30T09:11:29;13.53;;;7.37;;
18917;SDS011;9591;52.742;13.650;2024-01-30T09:14:16;15.03;;;8.23;;
18917;SDS011;9591;52.742;13.650;2024-01-30T09:17:03;12.33;;;7.57;;
18917;SDS011;9591;52.742;13.650;2024-01-30T09:19:51;15.00;;;6.90;;
18917;SDS011;9591;52.742;13.650;2024-01-30T09:22:38;16.80;;;7.47;;
18917;SDS011;9591;52.742;13.650;2024-01-30T09:25:25;14.57;;;6.20;;
18917;SDS011;9591;52.742;13.650;2024-01-30T09:28:12;14.20;;;7.40;;
18917;SDS011;9591;52.742;13.650;2024-01-30T09:30:59;13.97;;;6.77;;
18917;SDS011;9591;52.742;13.650;2024-01-30T09:33:46;12.87;;;6.60;;
18917;SDS011;9591;52.742;13.650;2024-01-30T09:36:35;15.03;;;7.30;;
18917;SDS011;9591;52.742;13.650;2024-01-30T09:39:22;18.60;;;7.80;;
18917;SDS011;9591;52.742;13.650;2024-01-30T09:42:11;11.17;;;7.13;;
18917;SDS011;9591;52.742;13.650;2024-01-30T09:45:05;15.47;;;7.40;;
18917;SDS011;9591;52.742;13.650;2024-01-30T09:47:52;14.60;;;8.17;;
18917;SDS011;9591;52.742;13.650;2024-01-30T09:50:39;15.00;;;7.43;;
18917;SDS011;9591;52.742;13.650;2024-01-30T09:53:27;20.43;;;8.10;;
18917;SDS011;9591;52.742;13.650;2024-01-30T09:56:14;12.87;;;7.10;;
18917;SDS011;9591;52.742;13.650;2024-01-30T09:59:02;15.00;;;7.47;;
18917;SDS011;9591;52.742;13.650;2024-01-30T10:01:48;16.53;;;8.00;;
18917;SDS011;9591;52.742;13.650;2024-01-30T10:04:36;13.60;;;6.93;;
18917;SDS011;9591;52.742;13.650;2024-01-30T10:07:23;14.73;;;7.37;;
18917;SDS011;9591;52.742;13.650;2024-01-30T10:10:11;18.93;;;7.30;;
18917;SDS011;9591;52.742;13.650;2024-01-30T10:12:58;15.93;;;7.30;;
18917;SDS011;9591;52.742;13.650;2024-01-30T10:15:49;12.13;;;6.20;;
18917;SDS011;9591;52.742;13.650;2024-01-30T10:18:37;15.53;;;7.33;;
18917;SDS011;9591;52.742;13.650;2024-01-30T10:21:28;10.77;;;6.80;;
18917;SDS011;9591;52.742;13.650;2024-01-30T10:24:16;14.10;;;7.60;;
18917;SDS011;9591;52.742;13.650;2024-01-30T10:27:05;12.13;;;7.20;;
18917;SDS011;9591;52.742;13.650;2024-01-30T10:29:52;16.47;;;7.00;;
18917;SDS011;9591;52.742;13.650;2024-01-30T10:32:38;38.40;;;17.17;;
18917;SDS011;9591;52.742;13.650;2024-01-30T10:35:25;14.50;;;7.07;;
18917;SDS011;9591;52.742;13.650;2024-01-30T10:38:12;14.83;;;8.20;;
18917;SDS011;9591;52.742;13.650;2024-01-30T10:41:03;15.80;;;8.40;;
18917;SDS011;9591;52.742;13.650;2024-01-30T10:43:55;16.27;;;7.83;;
18917;SDS011;9591;52.742;13.650;2024-01-30T10:46:51;17.27;;;7.80;;
18917;SDS011;9591;52.742;13.650;2024-01-30T10:49:45;16.13;;;7.70;;
18917;SDS011;9591;52.742;13.650;2024-01-30T10:52:33;16.17;;;7.90;;
18917;SDS011;9591;52.742;13.650;2024-01-30T10:55:21;13.83;;;6.50;;
18917;SDS011;9591;52.742;13.650;2024-01-30T10:58:09;11.63;;;6.43;;
18917;SDS011;9591;52.742;13.650;2024-01-30T11:00:58;16.30;;;7.17;;
18917;SDS011;9591;52.742;13.650;2024-01-30T11:03:46;20.07;;;6.90;;
18917;SDS011;9591;52.742;13.650;2024-01-30T11:06:33;10.97;;;6.93;;
18917;SDS011;9591;52.742;13.650;2024-01-30T11:09:28;17.07;;;6.70;;
18917;SDS011;9591;52.742;13.650;2024-01-30T11:12:16;13.30;;;7.53;;
18917;SDS011;9591;52.742;13.650;2024-01-30T11:15:03;13.37;;;7.70;;
18917;SDS011;9591;52.742;13.650;2024-01-30T11:17:53;11.83;;;6.47;;
18917;SDS011;9591;52.742;13.650;2024-01-30T11:20:39;14.13;;;7.90;;
18917;SDS011;9591;52.742;13.650;2024-01-30T11:23:33;12.67;;;6.73;;
18917;SDS011;9591;52.742;13.650;2024-01-30T11:26:23;10.07;;;6.57;;
18917;SDS011;9591;52.742;13.650;2024-01-30T11:29:14;13.50;;;7.50;;
18917;SDS011;9591;52.742;13.650;2024-01-30T11:32:01;15.67;;;6.87;;
18917;SDS011;9591;52.742;13.650;2024-01-30T11:34:50;14.73;;;6.70;;
18917;SDS011;9591;52.742;13.650;2024-01-30T11:37:37;14.17;;;5.37;;
18917;SDS011;9591;52.742;13.650;2024-01-30T11:40:24;14.70;;;6.40;;
18917;SDS011;9591;52.742;13.650;2024-01-30T11:43:13;12.57;;;6.57;;
18917;SDS011;9591;52.742;13.650;2024-01-30T11:46:05;11.37;;;6.90;;
18917;SDS011;9591;52.742;13.650;2024-01-30T11:48:52;15.17;;;8.70;;
18917;SDS011;9591;52.742;13.650;2024-01-30T11:51:40;16.00;;;8.27;;
18917;SDS011;9591;52.742;13.650;2024-01-30T11:54:27;11.07;;;5.93;;
18917;SDS011;9591;52.742;13.650;2024-01-30T11:57:15;13.63;;;5.83;;
18917;SDS011;9591;52.742;13.650;2024-01-30T12:00:03;13.37;;;5.23;;
18917;SDS011;9591;52.742;13.650;2024-01-30T12:02:55;10.30;;;6.50;;
18917;SDS011;9591;52.742;13.650;2024-01-30T12:05:42;12.23;;;6.00;;
18917;SDS011;9591;52.742;13.650;2024-01-30T12:08:31;10.83;;;6.63;;
18917;SDS011;9591;52.742;13.650;2024-01-30T12:11:18;10.67;;;6.63;;
18917;SDS011;9591;52.742;13.650;2024-01-30T12:14:05;12.70;;;6.47;;
18917;SDS011;9591;52.742;13.650;2024-01-30T12:16:52;11.50;;;5.23;;
18917;SDS011;9591;52.742;13.650;2024-01-30T12:19:39;16.53;;;6.50;;
18917;SDS011;9591;52.742;13.650;2024-01-30T12:22:25;12.43;;;6.70;;
18917;SDS011;9591;52.742;13.650;2024-01-30T12:25:14;13.53;;;6.30;;
18917;SDS011;9591;52.742;13.650;2024-01-30T12:28:03;10.50;;;6.30;;
18917;SDS011;9591;52.742;13.650;2024-01-30T12:30:54;17.40;;;6.60;;
18917;SDS011;9591;52.742;13.650;2024-01-30T12:33:42;13.80;;;5.30;;
18917;SDS011;9591;52.742;13.650;2024-01-30T12:36:29;13.57;;;5.80;;
18917;SDS011;9591;52.742;13.650;2024-01-30T12:39:16;13.17;;;5.70;;
18917;SDS011;9591;52.742;13.650;2024-01-30T12:42:05;13.90;;;6.37;;
18917;SDS011;9591;52.742;13.650;2024-01-30T12:44:52;10.70;;;5.60;;
18917;SDS011;9591;52.742;13.650;2024-01-30T12:47:39;12.67;;;5.93;;
18917;SDS011;9591;52.742;13.650;2024-01-30T12:50:26;8.13;;;5.03;;
18917;SDS011;9591;52.742;13.650;2024-01-30T12:53:13;13.23;;;5.77;;
18917;SDS011;9591;52.742;13.650;2024-01-30T12:56:00;10.27;;;5.43;;
18917;SDS011;9591;52.742;13.650;2024-01-30T12:58:48;11.97;;;5.73;;
18917;SDS011;9591;52.742;13.650;2024-01-30T13:01:38;12.63;;;6.27;;
18917;SDS011;9591;52.742;13.650;2024-01-30T13:04:25;11.70;;;6.50;;
18917;SDS011;9591;52.742;13.650;2024-01-30T13:07:13;9.97;;;5.77;;
18917;SDS011;9591;52.742;13.650;2024-01-30T13:10:00;9.13;;;5.20;;
18917;SDS011;9591;52.742;13.650;2024-01-30T13:12:49;8.90;;;5.13;;
18917;SDS011;9591;52.742;13.650;2024-01-30T13:15:38;13.33;;;5.87;;
18917;SDS011;9591;52.742;13.650;2024-01-30T13:18:24;10.60;;;6.17;;
18917;SDS011;9591;52.742;13.650;2024-01-30T13:21:11;13.37;;;5.60;;
18917;SDS011;9591;52.742;13.650;2024-01-30T13:23:58;10.47;;;5.10;;
18917;SDS011;9591;52.742;13.650;2024-01-30T13:26:45;10.63;;;5.50;;
18917;SDS011;9591;52.742;13.650;2024-01-30T13:29:32;11.13;;;5.50;;
18917;SDS011;9591;52.742;13.650;2024-01-30T13:32:20;12.23;;;5.83;;
18917;SDS011;9591;52.742;13.650;2024-01-30T13:35:07;16.20;;;6.33;;
18917;SDS011;9591;52.742;13.650;2024-01-30T13:37:54;11.17;;;5.50;;
18917;SDS011;9591;52.742;13.650;2024-01-30T13:40:41;11.30;;;5.70;;
18917;SDS011;9591;52.742;13.650;2024-01-30T13:43:28;9.77;;;5.03;;
18917;SDS011;9591;52.742;13.650;2024-01-30T13:46:15;7.80;;;5.20;;
18917;SDS011;9591;52.742;13.650;2024-01-30T13:49:03;10.03;;;4.90;;
18917;SDS011;9591;52.742;13.650;2024-01-30T13:51:50;15.03;;;5.57;;
18917;SDS011;9591;52.742;13.650;2024-01-30T13:54:39;9.37;;;5.43;;
18917;SDS011;9591;52.742;13.650;2024-01-30T13:57:26;11.90;;;5.43;;
18917;SDS011;9591;52.742;13.650;2024-01-30T14:00:13;12.77;;;6.10;;
18917;SDS011;9591;52.742;13.650;2024-01-30T14:03:01;11.27;;;5.83;;
18917;SDS011;9591;52.742;13.650;2024-01-30T14:05:49;9.10;;;5.20;;
18917;SDS011;9591;52.742;13.650;2024-01-30T14:08:37;10.97;;;6.00;;
18917;SDS011;9591;52.742;13.650;2024-01-30T14:11:24;9.37;;;5.67;;
18917;SDS011;9591;52.742;13.650;2024-01-30T14:14:11;12.10;;;5.50;;
18917;SDS011;9591;52.742;13.650;2024-01-30T14:16:59;11.10;;;5.60;;
18917;SDS011;9591;52.742;13.650;2024-01-30T14:19:46;13.63;;;6.80;;
18917;SDS011;9591;52.742;13.650;2024-01-30T14:22:34;10.63;;;5.97;;
18917;SDS011;9591;52.742;13.650;2024-01-30T14:25:21;11.00;;;5.13;;
18917;SDS011;9591;52.742;13.650;2024-01-30T14:28:08;10.30;;;5.50;;
18917;SDS011;9591;52.742;13.650;2024-01-30T14:30:55;11.23;;;5.47;;
18917;SDS011;9591;52.742;13.650;2024-01-30T14:33:42;10.23;;;6.13;;
18917;SDS011;9591;52.742;13.650;2024-01-30T14:36:29;11.57;;;6.10;;
18917;SDS011;9591;52.742;13.650;2024-01-30T14:39:17;10.33;;;5.80;;
18917;SDS011;9591;52.742;13.650;2024-01-30T14:42:05;11.70;;;5.77;;
18917;SDS011;9591;52.742;13.650;2024-01-30T14:44:52;11.87;;;6.37;;
18917;SDS011;9591;52.742;13.650;2024-01-30T14:47:39;10.83;;;5.53;;
18917;SDS011;9591;52.742;13.650;2024-01-30T14:50:26;12.70;;;5.97;;
18917;SDS011;9591;52.742;13.650;2024-01-30T14:53:13;9.83;;;5.83;;
18917;SDS011;9591;52.742;13.650;2024-01-30T14:56:02;13.10;;;5.97;;
18917;SDS011;9591;52.742;13.650;2024-01-30T14:58:50;16.83;;;6.57;;
18917;SDS011;9591;52.742;13.650;2024-01-30T15:01:37;17.83;;;6.93;;
18917;SDS011;9591;52.742;13.650;2024-01-30T15:04:24;11.03;;;6.00;;
18917;SDS011;9591;52.742;13.650;2024-01-30T15:07:10;10.30;;;6.13;;
18917;SDS011;9591;52.742;13.650;2024-01-30T15:10:07;12.73;;;5.67;;
18917;SDS011;9591;52.742;13.650;2024-01-30T15:12:57;11.30;;;5.53;;
18917;SDS011;9591;52.742;13.650;2024-01-30T15:15:44;10.53;;;5.80;;
18917;SDS011;9591;52.742;13.650;2024-01-30T15:18:31;9.53;;;5.90;;
18917;SDS011;9591;52.742;13.650;2024-01-30T15:21:18;10.90;;;6.00;;
18917;SDS011;9591;52.742;13.650;2024-01-30T15:24:09;16.40;;;6.43;;
18917;SDS011;9591;52.742;13.650;2024-01-30T15:27:00;11.13;;;5.77;;
18917;SDS011;9591;52.742;13.650;2024-01-30T15:29:49;11.90;;;5.87;;
18917;SDS011;9591;52.742;13.650;2024-01-30T15:32:36;10.93;;;5.80;;
18917;SDS011;9591;52.742;13.650;2024-01-30T15:35:23;10.27;;;5.90;;
18917;SDS011;9591;52.742;13.650;2024-01-30T15:38:10;11.33;;;5.70;;
18917;SDS011;9591;52.742;13.650;2024-01-30T15:40:58;13.00;;;6.50;;
18917;SDS011;9591;52.742;13.650;2024-01-30T15:43:45;10.17;;;5.97;;
18917;SDS011;9591;52.742;13.650;2024-01-30T15:46:34;10.80;;;6.37;;
18917;SDS011;9591;52.742;13.650;2024-01-30T15:49:20;9.27;;;5.57;;
18917;SDS011;9591;52.742;13.650;2024-01-30T15:52:07;13.77;;;5.80;;
18917;SDS011;9591;52.742;13.650;2024-01-30T15:54:59;14.10;;;5.70;;
18917;SDS011;9591;52.742;13.650;2024-01-30T15:57:47;12.13;;;5.97;;
18917;SDS011;9591;52.742;13.650;2024-01-30T16:00:41;11.33;;;5.40;;
18917;SDS011;9591;52.742;13.650;2024-01-30T16:03:29;13.87;;;5.93;;
18917;SDS011;9591;52.742;13.650;2024-01-30T16:06:16;14.43;;;6.13;;
18917;SDS011;9591;52.742;13.650;2024-01-30T16:09:03;14.57;;;5.73;;
18917;SDS011;9591;52.742;13.650;2024-01-30T16:11:50;13.83;;;5.97;;
18917;SDS011;9591;52.742;13.650;2024-01-30T16:14:37;12.47;;;6.23;;
18917;SDS011;9591;52.742;13.650;2024-01-30T16:17:24;15.67;;;5.37;;
18917;SDS011;9591;52.742;13.650;2024-01-30T16:20:12;10.33;;;6.03;;
18917;SDS011;9591;52.742;13.650;2024-01-30T16:23:00;10.77;;;6.13;;
18917;SDS011;9591;52.742;13.650;2024-01-30T16:25:47;9.57;;;5.60;;
18917;SDS011;9591;52.742;13.650;2024-01-30T16:28:34;14.33;;;6.90;;
18917;SDS011;9591;52.742;13.650;2024-01-30T16:31:21;14.57;;;7.30;;
18917;SDS011;9591;52.742;13.650;2024-01-30T16:34:08;11.37;;;5.87;;
18917;SDS011;9591;52.742;13.650;2024-01-30T16:36:56;10.07;;;6.53;;